Time;durP1;ratioP1;P1;durP2;ratioP2;P2;SDS_P1;SDS_P2;PMS_P1;PMS_P2;Temp;Humidity;BMP_temperature;BMP_pressure;BME280_temperature;BME280_humidity;BME280_pressure;Samples;Min_cycle;Max_cycle;Signal;HPM_P1;HPM_P2
2021/11/29 00:00:13;;;;;;;7.32;5.75;;;2.60;99.90;;;;;;5075543;28;20020;-77
2021/11/29 00:02:40;;;;;;;7.35;6.30;;;2.60;99.90;;;;;;5075427;28;20020;-77
2021/11/29 00:05:07;;;;;;;6.10;5.15;;;2.60;99.90;;;;;;5093506;28;20020;-78
2021/11/29 00:07:33;;;;;;;7.40;6.20;;;2.50;99.90;;;;;;5075394;28;20032;-77
2021/11/29 00:09:59;;;;;;;7.05;5.95;;;2.50;99.90;;;;;;5075355;28;20030;-77
2021/11/29 00:12:24;;;;;;;8.20;6.20;;;2.50;99.90;;;;;;5093435;28;20406;-77
2021/11/29 00:14:50;;;;;;;7.75;5.55;;;2.60;99.90;;;;;;5075338;28;20020;-78
2021/11/29 00:17:16;;;;;;;8.55;6.85;;;2.60;99.90;;;;;;5093427;28;20027;-77
2021/11/29 00:19:42;;;;;;;9.70;6.85;;;2.50;99.90;;;;;;5075300;28;20140;-78
2021/11/29 00:22:08;;;;;;;10.00;7.72;;;2.50;99.90;;;;;;5093369;28;20039;-77
2021/11/29 00:24:34;;;;;;;10.68;7.95;;;2.50;99.90;;;;;;5093324;28;20407;-77
2021/11/29 00:27:00;;;;;;;8.70;7.22;;;2.40;99.90;;;;;;5093514;28;20016;-77
2021/11/29 00:29:26;;;;;;;10.93;8.02;;;2.50;99.90;;;;;;5093256;28;20509;-77
2021/11/29 00:31:52;;;;;;;8.68;6.68;;;2.50;99.90;;;;;;5074964;28;20028;-77
2021/11/29 00:34:18;;;;;;;10.90;8.48;;;2.50;99.90;;;;;;5075058;28;20020;-78
2021/11/29 00:36:43;;;;;;;8.95;7.10;;;2.40;99.90;;;;;;5092971;28;20419;-77
2021/11/29 00:39:09;;;;;;;8.25;6.28;;;2.40;99.90;;;;;;5075031;28;20020;-78
2021/11/29 00:41:35;;;;;;;11.10;8.40;;;2.50;99.90;;;;;;5093363;28;20032;-77
2021/11/29 00:44:01;;;;;;;13.63;9.55;;;2.50;99.90;;;;;;5075042;28;20131;-77
2021/11/29 00:46:26;;;;;;;9.82;7.30;;;2.60;99.90;;;;;;5093082;28;20111;-77
2021/11/29 00:48:52;;;;;;;12.75;7.80;;;2.70;99.90;;;;;;5076294;28;20034;-77
2021/11/29 00:51:18;;;;;;;12.05;8.00;;;2.60;99.90;;;;;;5097174;28;20056;-77
2021/11/29 00:53:46;;;;;;;12.40;9.18;;;2.50;99.90;;;;;;5078953;28;20110;-77
2021/11/29 00:56:12;;;;;;;10.38;7.93;;;2.40;99.90;;;;;;5078979;28;20028;-77
2021/11/29 00:58:38;;;;;;;11.98;9.32;;;2.40;99.90;;;;;;5078925;28;20030;-77
2021/11/29 01:01:04;;;;;;;10.90;8.15;;;2.50;99.90;;;;;;5097035;28;20035;-77
2021/11/29 01:03:29;;;;;;;12.88;8.45;;;2.50;99.90;;;;;;5078803;28;20028;-77
2021/11/29 01:05:56;;;;;;;11.52;8.18;;;2.50;99.90;;;;;;5096954;28;20479;-77
2021/11/29 01:08:22;;;;;;;11.75;8.88;;;2.60;99.90;;;;;;5078710;28;20169;-77
2021/11/29 01:10:48;;;;;;;14.65;10.43;;;2.50;99.90;;;;;;5096754;28;20103;-77
2021/11/29 01:13:13;;;;;;;13.18;9.27;;;2.50;99.90;;;;;;5096822;28;20024;-77
2021/11/29 01:15:39;;;;;;;13.48;9.80;;;2.40;99.90;;;;;;5096753;28;20384;-77
2021/11/29 01:18:09;;;;;;;13.57;10.00;;;2.50;99.90;;;;;;5078512;28;20016;-77
2021/11/29 01:20:37;;;;;;;11.18;8.32;;;2.40;99.90;;;;;;5078445;28;20379;-77
2021/11/29 01:23:04;;;;;;;12.38;9.95;;;2.50;99.90;;;;;;5096586;28;20028;-77
2021/11/29 01:25:31;;;;;;;12.75;10.02;;;2.50;99.90;;;;;;5078332;28;20020;-77
2021/11/29 01:27:57;;;;;;;10.80;8.25;;;2.40;99.90;;;;;;5096768;28;20486;-77
2021/11/29 01:30:23;;;;;;;17.13;11.05;;;2.50;99.90;;;;;;5078349;28;20156;-77
2021/11/29 01:32:49;;;;;;;12.18;8.75;;;2.30;99.90;;;;;;5078129;28;20085;-77
2021/11/29 01:35:14;;;;;;;12.60;9.18;;;2.40;99.90;;;;;;5078685;28;20031;-77
2021/11/29 01:37:40;;;;;;;9.38;7.25;;;2.50;99.90;;;;;;5096134;28;20381;-78
2021/11/29 01:40:08;;;;;;;14.00;9.52;;;2.60;99.90;;;;;;5096857;28;20490;-77
2021/11/29 01:42:35;;;;;;;12.95;10.07;;;2.60;99.90;;;;;;5096248;28;20052;-78
2021/11/29 01:45:01;;;;;;;12.98;9.85;;;2.60;99.90;;;;;;5078044;28;20054;-77
2021/11/29 01:47:27;;;;;;;17.08;11.65;;;2.50;99.90;;;;;;5077871;28;20030;-77
2021/11/29 01:49:53;;;;;;;12.80;10.15;;;2.40;99.90;;;;;;5077929;28;20036;-78
2021/11/29 01:52:19;;;;;;;13.85;10.32;;;2.40;99.90;;;;;;5096236;28;20031;-77
2021/11/29 01:54:45;;;;;;;15.02;10.48;;;2.40;99.90;;;;;;5095990;28;20020;-77
2021/11/29 01:57:11;;;;;;;18.05;11.63;;;2.30;99.90;;;;;;5077817;28;20031;-77
2021/11/29 01:59:36;;;;;;;16.95;10.90;;;2.30;99.90;;;;;;5095360;28;20383;-77
2021/11/29 02:02:03;;;;;;;14.30;10.20;;;2.20;99.90;;;;;;5096182;28;20032;-77
2021/11/29 02:04:29;;;;;;;27.17;15.43;;;2.40;99.90;;;;;;5077694;28;20020;-77
2021/11/29 02:06:55;;;;;;;26.10;14.57;;;2.40;99.90;;;;;;5077627;28;20028;-78
2021/11/29 02:09:21;;;;;;;21.40;13.32;;;2.40;99.90;;;;;;5077539;28;20387;-78
2021/11/29 02:11:47;;;;;;;14.63;10.75;;;2.40;99.90;;;;;;5077390;28;20395;-78
2021/11/29 02:14:12;;;;;;;24.73;15.77;;;2.40;99.90;;;;;;5095670;28;20132;-77
2021/11/29 02:16:38;;;;;;;14.60;10.52;;;2.40;99.90;;;;;;5095603;28;20028;-78
2021/11/29 02:19:07;;;;;;;15.90;11.10;;;2.50;99.90;;;;;;5077434;28;20051;-77
2021/11/29 02:21:33;;;;;;;19.48;11.98;;;2.60;99.90;;;;;;5077336;28;20077;-77
2021/11/29 02:24:05;;;;;;;14.68;10.05;;;2.60;99.90;;;;;;5095447;28;20035;-78
2021/11/29 02:26:35;;;;;;;13.77;9.70;;;2.50;99.90;;;;;;5095776;28;20103;-78
2021/11/29 02:29:16;;;;;;;21.02;13.32;;;2.50;99.90;;;;;;5095394;28;20058;-77
2021/11/29 02:31:44;;;;;;;30.33;17.52;;;2.50;99.90;;;;;;5077146;28;20024;-77
2021/11/29 02:34:20;;;;;;;17.30;12.20;;;2.40;99.90;;;;;;5095265;28;20024;-78
2021/11/29 02:36:47;;;;;;;16.65;10.85;;;2.50;99.90;;;;;;5076920;28;20158;-77
2021/11/29 02:39:14;;;;;;;18.13;12.85;;;2.50;99.90;;;;;;5095510;28;20086;-78
2021/11/29 02:41:41;;;;;;;18.02;12.82;;;2.40;99.90;;;;;;5076928;28;20030;-77
2021/11/29 02:44:07;;;;;;;17.42;12.05;;;2.30;99.90;;;;;;5095106;28;20525;-78
2021/11/29 02:46:34;;;;;;;19.05;12.40;;;2.30;99.90;;;;;;5095036;28;20024;-78
2021/11/29 02:49:01;;;;;;;23.15;13.63;;;2.20;99.90;;;;;;5076795;28;20029;-78
2021/11/29 02:51:36;;;;;;;24.58;14.45;;;2.20;99.90;;;;;;5094890;28;20498;-77
2021/11/29 02:54:15;;;;;;;22.83;15.23;;;2.30;99.90;;;;;;5076686;28;20112;-77
2021/11/29 02:56:48;;;;;;;14.43;10.52;;;2.20;99.90;;;;;;5094777;28;20016;-78
2021/11/29 02:59:17;;;;;;;19.05;11.18;;;2.20;99.90;;;;;;5076707;28;20543;-77
2021/11/29 03:01:46;;;;;;;19.20;13.20;;;2.20;99.90;;;;;;5094699;28;20035;-78
2021/11/29 03:04:12;;;;;;;17.40;10.85;;;2.20;99.90;;;;;;5076451;28;20028;-77
2021/11/29 03:06:38;;;;;;;16.05;10.68;;;2.20;99.90;;;;;;5094680;28;20032;-77
2021/11/29 03:09:08;;;;;;;18.60;11.85;;;2.30;99.90;;;;;;5094578;28;20093;-77
2021/11/29 03:11:34;;;;;;;19.75;12.23;;;2.20;99.90;;;;;;5075383;28;20081;-77
2021/11/29 03:14:00;;;;;;;17.70;10.95;;;2.10;99.90;;;;;;5094457;28;20019;-77
2021/11/29 03:16:26;;;;;;;17.45;11.70;;;2.30;99.90;;;;;;5094963;28;20420;-77
2021/11/29 03:18:52;;;;;;;19.10;11.98;;;2.30;99.90;;;;;;5094474;28;20092;-77
2021/11/29 03:21:22;;;;;;;18.05;11.50;;;2.40;99.90;;;;;;5076213;28;20126;-78
2021/11/29 03:23:50;;;;;;;18.90;12.70;;;2.20;99.90;;;;;;5094319;28;20020;-77
2021/11/29 03:26:19;;;;;;;15.48;10.38;;;2.20;99.90;;;;;;5076115;28;20024;-77
2021/11/29 03:28:49;;;;;;;13.73;9.73;;;2.30;99.90;;;;;;5077144;28;20032;-77
2021/11/29 03:31:15;;;;;;;13.68;9.93;;;2.40;99.90;;;;;;5094108;28;20024;-77
2021/11/29 03:33:43;;;;;;;15.00;10.23;;;2.20;99.90;;;;;;5075997;28;20028;-78
2021/11/29 03:36:09;;;;;;;15.38;10.85;;;2.00;99.90;;;;;;5075827;28;20160;-77
2021/11/29 03:38:35;;;;;;;16.30;11.45;;;2.00;99.90;;;;;;5075744;28;20182;-77
2021/11/29 03:41:02;;;;;;;17.52;12.05;;;2.00;99.90;;;;;;5094247;28;20032;-77
2021/11/29 03:43:27;;;;;;;17.38;11.93;;;1.90;99.90;;;;;;5093975;28;20024;-77
2021/11/29 03:45:53;;;;;;;15.70;10.95;;;1.90;99.90;;;;;;5075718;28;20387;-78
2021/11/29 03:48:20;;;;;;;17.05;12.18;;;1.90;99.90;;;;;;5075671;28;20490;-77
2021/11/29 03:50:46;;;;;;;18.05;12.70;;;2.00;99.90;;;;;;5075608;28;20024;-77
2021/11/29 03:53:12;;;;;;;16.42;11.35;;;2.00;99.90;;;;;;5093750;28;20081;-77
2021/11/29 03:55:38;;;;;;;20.88;13.73;;;1.90;99.90;;;;;;5075595;28;20588;-77
2021/11/29 03:58:04;;;;;;;19.63;12.68;;;1.80;99.90;;;;;;5075432;28;20111;-78
2021/11/29 04:00:30;;;;;;;19.45;11.68;;;1.80;99.90;;;;;;5075473;28;20024;-78
2021/11/29 04:02:56;;;;;;;23.33;14.63;;;1.80;99.90;;;;;;5075514;28;20028;-77
2021/11/29 04:05:22;;;;;;;20.38;13.55;;;1.80;99.90;;;;;;5093626;28;20055;-78
2021/11/29 04:07:48;;;;;;;15.52;10.75;;;1.70;99.90;;;;;;5075390;28;20028;-77
2021/11/29 04:10:14;;;;;;;16.52;11.73;;;1.60;99.90;;;;;;5075376;28;20028;-77
2021/11/29 04:12:40;;;;;;;16.15;10.93;;;1.80;99.90;;;;;;5075530;28;20169;-77
2021/11/29 04:15:07;;;;;;;18.80;11.32;;;2.00;99.90;;;;;;5075277;28;20099;-77
2021/11/29 04:17:33;;;;;;;16.33;10.57;;;2.10;99.90;;;;;;5093433;28;20024;-78
2021/11/29 04:19:59;;;;;;;15.43;10.77;;;2.10;99.90;;;;;;5093665;28;20378;-78
2021/11/29 04:22:26;;;;;;;15.85;10.50;;;2.20;99.90;;;;;;5093363;28;20024;-78
2021/11/29 04:24:52;;;;;;;15.00;10.73;;;2.20;99.90;;;;;;5093348;28;20077;-78
2021/11/29 04:27:19;;;;;;;15.98;11.48;;;2.20;99.90;;;;;;5093296;28;20077;-77
2021/11/29 04:29:46;;;;;;;15.48;11.05;;;2.00;99.90;;;;;;5075163;28;20051;-78
2021/11/29 04:32:12;;;;;;;18.27;11.75;;;2.00;99.90;;;;;;5075016;28;20069;-78
2021/11/29 04:34:39;;;;;;;20.13;12.20;;;2.00;99.90;;;;;;5093163;28;20382;-78
2021/11/29 04:37:05;;;;;;;16.33;11.23;;;2.10;99.90;;;;;;5093021;28;20040;-78
2021/11/29 04:39:33;;;;;;;18.55;12.30;;;2.10;99.90;;;;;;5093146;28;20016;-77
2021/11/29 04:41:59;;;;;;;17.17;12.15;;;2.20;99.90;;;;;;5093402;28;20039;-78
2021/11/29 04:44:25;;;;;;;17.25;10.82;;;2.20;99.90;;;;;;5074959;28;20115;-78
2021/11/29 04:46:51;;;;;;;18.98;12.90;;;2.30;99.90;;;;;;5093097;28;20095;-77
2021/11/29 04:49:17;;;;;;;15.88;11.57;;;2.40;99.90;;;;;;5093019;28;20024;-78
2021/11/29 04:51:43;;;;;;;18.52;12.05;;;2.30;99.90;;;;;;5093010;28;20024;-78
2021/11/29 04:54:09;;;;;;;14.70;10.82;;;2.40;99.90;;;;;;5093010;28;20433;-77
2021/11/29 04:56:39;;;;;;;17.70;11.32;;;2.40;99.90;;;;;;5092959;28;20021;-78
2021/11/29 04:59:05;;;;;;;17.60;11.20;;;2.40;99.90;;;;;;5074882;28;20483;-78
2021/11/29 05:01:31;;;;;;;16.27;11.18;;;2.40;99.90;;;;;;5093178;28;20102;-78
2021/11/29 05:03:57;;;;;;;14.57;10.38;;;2.40;99.90;;;;;;5074837;28;20539;-78
2021/11/29 05:06:23;;;;;;;14.65;10.27;;;2.50;99.90;;;;;;5093136;28;20043;-78
2021/11/29 05:08:49;;;;;;;16.40;10.90;;;2.50;99.90;;;;;;5074690;28;20484;-77
2021/11/29 05:11:15;;;;;;;14.63;9.80;;;2.50;99.90;;;;;;5074580;28;20032;-78
2021/11/29 05:13:41;;;;;;;15.20;10.50;;;2.50;99.90;;;;;;5074654;28;20365;-78
2021/11/29 05:16:06;;;;;;;14.18;9.88;;;2.40;99.90;;;;;;5093088;28;20472;-78
2021/11/29 05:18:33;;;;;;;14.52;10.00;;;2.30;99.90;;;;;;5074646;28;20020;-77
2021/11/29 05:20:58;;;;;;;16.35;10.77;;;2.30;99.90;;;;;;5074650;28;20492;-78
2021/11/29 05:23:24;;;;;;;16.00;10.43;;;2.30;99.90;;;;;;5092982;28;20070;-77
2021/11/29 05:25:50;;;;;;;16.02;9.85;;;2.30;99.90;;;;;;5093173;28;20032;-77
2021/11/29 05:28:16;;;;;;;13.30;9.38;;;2.20;99.90;;;;;;5092661;28;20020;-77
2021/11/29 05:30:43;;;;;;;13.75;9.50;;;2.20;99.90;;;;;;5092635;28;20027;-77
2021/11/29 05:33:09;;;;;;;14.68;9.63;;;2.30;99.90;;;;;;5092680;28;20365;-77
2021/11/29 05:35:35;;;;;;;13.82;9.10;;;2.30;99.90;;;;;;5095062;28;20024;-77
2021/11/29 05:38:01;;;;;;;14.20;9.02;;;2.20;99.90;;;;;;5096091;28;20111;-78
2021/11/29 05:40:28;;;;;;;15.38;9.60;;;2.20;99.90;;;;;;5078087;28;20032;-78
2021/11/29 05:42:54;;;;;;;13.20;8.73;;;2.10;99.90;;;;;;5096248;28;20024;-77
2021/11/29 05:45:20;;;;;;;15.38;9.27;;;2.20;99.90;;;;;;5096568;28;20464;-78
2021/11/29 05:47:46;;;;;;;13.30;9.70;;;2.00;99.90;;;;;;5096177;28;20024;-78
2021/11/29 05:50:14;;;;;;;14.93;9.45;;;1.90;99.90;;;;;;5096412;28;20024;-78
2021/11/29 05:52:40;;;;;;;15.57;9.95;;;2.10;99.90;;;;;;5077835;28;20039;-77
2021/11/29 05:55:08;;;;;;;15.35;9.80;;;2.00;99.90;;;;;;5077900;28;20027;-78
2021/11/29 05:57:34;;;;;;;15.60;10.75;;;1.90;99.90;;;;;;5077772;28;20047;-77
2021/11/29 06:00:00;;;;;;;15.63;10.02;;;1.90;99.90;;;;;;5077768;28;20020;-77
2021/11/29 06:02:25;;;;;;;15.07;9.27;;;2.00;99.90;;;;;;5095881;28;20035;-78
2021/11/29 06:04:51;;;;;;;15.57;9.02;;;2.10;99.90;;;;;;5077688;28;20046;-78
2021/11/29 06:07:17;;;;;;;14.63;9.38;;;2.10;99.90;;;;;;5096089;28;20024;-78
2021/11/29 06:09:43;;;;;;;12.63;8.48;;;2.20;99.90;;;;;;5095739;28;20031;-78
2021/11/29 06:12:09;;;;;;;13.10;9.50;;;2.20;99.90;;;;;;5095892;28;20084;-78
2021/11/29 06:14:35;;;;;;;16.17;8.88;;;2.10;99.90;;;;;;5077513;28;20025;-78
2021/11/29 06:17:01;;;;;;;29.77;13.70;;;2.00;99.90;;;;;;5095687;28;20016;-78
2021/11/29 06:19:28;;;;;;;17.45;9.60;;;2.10;99.90;;;;;;5095448;28;20093;-78
2021/11/29 06:21:54;;;;;;;18.50;11.25;;;2.10;99.90;;;;;;5077221;28;20024;-77
2021/11/29 06:24:19;;;;;;;23.65;11.30;;;2.20;99.90;;;;;;5077340;28;20031;-78
2021/11/29 06:26:45;;;;;;;15.15;9.63;;;2.20;99.90;;;;;;5077339;28;20097;-78
2021/11/29 06:29:12;;;;;;;20.60;11.45;;;2.20;99.90;;;;;;5095438;28;20498;-78
2021/11/29 06:31:38;;;;;;;15.20;8.18;;;2.30;99.90;;;;;;5077155;28;20028;-78
2021/11/29 06:34:04;;;;;;;16.67;10.50;;;2.30;99.90;;;;;;5095336;28;20028;-78
2021/11/29 06:36:31;;;;;;;19.42;10.18;;;2.10;99.90;;;;;;5077020;28;20504;-77
2021/11/29 06:38:58;;;;;;;21.92;12.55;;;2.10;99.90;;;;;;5095820;28;20047;-77
2021/11/29 06:41:25;;;;;;;28.15;15.30;;;2.00;99.90;;;;;;5095474;28;20028;-77
2021/11/29 06:43:51;;;;;;;23.02;12.55;;;2.10;99.90;;;;;;5095350;28;20030;-77
2021/11/29 06:46:18;;;;;;;16.60;10.25;;;2.20;99.90;;;;;;5095048;28;20024;-77
2021/11/29 06:48:44;;;;;;;17.48;9.38;;;2.10;99.90;;;;;;5094962;28;20028;-77
2021/11/29 06:51:10;;;;;;;20.98;10.43;;;2.20;99.90;;;;;;5094906;28;20494;-78
2021/11/29 06:53:36;;;;;;;24.05;13.95;;;2.10;99.90;;;;;;5076770;28;20395;-78
2021/11/29 06:56:02;;;;;;;19.58;9.73;;;2.00;99.90;;;;;;5095126;28;20525;-78
2021/11/29 06:58:28;;;;;;;18.10;10.02;;;1.90;99.90;;;;;;5094875;28;20536;-77
2021/11/29 07:00:55;;;;;;;19.20;10.00;;;1.90;99.90;;;;;;5094825;28;20055;-78
2021/11/29 07:03:21;;;;;;;22.38;12.15;;;2.00;99.90;;;;;;5076597;28;20020;-78
2021/11/29 07:05:49;;;;;;;23.10;11.70;;;1.90;99.90;;;;;;5094948;28;20020;-78
2021/11/29 07:08:15;;;;;;;20.25;10.45;;;1.80;99.90;;;;;;5076493;28;20053;-78
2021/11/29 07:10:41;;;;;;;11.90;7.30;;;1.90;99.90;;;;;;5094476;28;20016;-78
2021/11/29 07:13:09;;;;;;;13.35;8.52;;;1.90;99.90;;;;;;5094498;28;20016;-78
2021/11/29 07:15:35;;;;;;;22.75;11.75;;;1.90;99.90;;;;;;5076348;28;20076;-77
2021/11/29 07:18:00;;;;;;;17.50;9.60;;;2.00;99.90;;;;;;5094490;28;20099;-77
2021/11/29 07:20:26;;;;;;;24.92;10.35;;;2.00;99.90;;;;;;5076177;28;20031;-77
2021/11/29 07:22:52;;;;;;;21.95;11.20;;;2.10;99.90;;;;;;5076286;28;20028;-77
2021/11/29 07:25:18;;;;;;;14.13;8.15;;;2.20;99.90;;;;;;5094380;28;20472;-77
2021/11/29 07:27:44;;;;;;;13.23;7.82;;;2.20;99.90;;;;;;5094379;28;20028;-77
2021/11/29 07:30:12;;;;;;;14.65;7.40;;;2.20;99.90;;;;;;5076063;28;20503;-77
2021/11/29 07:32:38;;;;;;;14.02;7.90;;;2.00;99.90;;;;;;5075954;28;20051;-77
2021/11/29 07:35:05;;;;;;;13.68;6.85;;;2.10;99.90;;;;;;5094142;28;20016;-77
2021/11/29 07:37:30;;;;;;;11.35;6.80;;;2.30;99.90;;;;;;5093905;28;20050;-77
2021/11/29 07:39:56;;;;;;;14.80;7.65;;;2.40;99.90;;;;;;5075841;28;20102;-77
2021/11/29 07:42:23;;;;;;;9.90;6.55;;;2.50;99.90;;;;;;5093940;28;20063;-77
2021/11/29 07:44:49;;;;;;;11.30;7.28;;;2.40;99.90;;;;;;5075773;28;20049;-77
2021/11/29 07:47:15;;;;;;;12.18;7.28;;;2.40;99.90;;;;;;5093927;28;20035;-77
2021/11/29 07:49:41;;;;;;;12.00;6.40;;;2.50;99.90;;;;;;5093933;28;20395;-77
2021/11/29 07:52:08;;;;;;;12.32;6.60;;;2.50;99.90;;;;;;5075649;28;20024;-77
2021/11/29 07:54:35;;;;;;;14.88;6.72;;;2.40;99.90;;;;;;5075620;28;20017;-77
2021/11/29 07:57:01;;;;;;;12.07;6.70;;;2.20;99.90;;;;;;5075220;28;20027;-77
2021/11/29 07:59:27;;;;;;;11.30;6.20;;;2.10;99.90;;;;;;5093752;28;20495;-77
2021/11/29 08:01:52;;;;;;;7.75;5.65;;;2.00;99.90;;;;;;5093774;28;20039;-77
2021/11/29 08:04:18;;;;;;;10.43;5.60;;;2.00;99.90;;;;;;5075536;28;20031;-78
2021/11/29 08:06:44;;;;;;;10.02;5.07;;;2.10;99.90;;;;;;5093588;28;20491;-77
2021/11/29 08:09:09;;;;;;;10.82;5.68;;;2.20;99.90;;;;;;5075392;28;20024;-77
2021/11/29 08:11:36;;;;;;;11.73;5.30;;;2.20;99.90;;;;;;5075379;28;20031;-77
2021/11/29 08:14:02;;;;;;;9.55;5.60;;;2.30;99.90;;;;;;5093486;28;20026;-78
2021/11/29 08:16:27;;;;;;;8.73;6.32;;;2.30;99.90;;;;;;5075368;28;20020;-77
2021/11/29 08:18:54;;;;;;;9.35;5.30;;;2.30;99.90;;;;;;5075327;28;20081;-77
2021/11/29 08:21:20;;;;;;;11.93;6.00;;;2.20;99.90;;;;;;5094059;28;20024;-77
2021/11/29 08:23:46;;;;;;;11.63;5.65;;;1.90;99.90;;;;;;5093621;28;20468;-77
2021/11/29 08:26:12;;;;;;;11.27;5.70;;;1.70;99.90;;;;;;5093597;28;20030;-77
2021/11/29 08:28:37;;;;;;;9.93;5.28;;;2.00;99.90;;;;;;5093351;28;20104;-77
2021/11/29 08:31:03;;;;;;;10.73;4.63;;;2.10;99.90;;;;;;5075075;28;20115;-78
2021/11/29 08:33:29;;;;;;;11.93;5.13;;;2.50;99.90;;;;;;5075118;28;20016;-78
2021/11/29 08:35:55;;;;;;;13.13;6.38;;;2.90;99.90;;;;;;5093312;28;20016;-77
2021/11/29 08:38:20;;;;;;;10.52;5.95;;;3.30;99.90;;;;;;5093063;28;20055;-77
2021/11/29 08:40:49;;;;;;;8.75;4.40;;;3.50;99.90;;;;;;5093485;28;20024;-78
2021/11/29 08:43:16;;;;;;;10.65;4.60;;;3.60;99.90;;;;;;5075110;28;20107;-77
2021/11/29 08:45:44;;;;;;;11.73;5.15;;;3.80;99.90;;;;;;5093183;28;20027;-77
2021/11/29 08:48:11;;;;;;;10.40;5.00;;;4.10;99.90;;;;;;5093279;28;20046;-77
2021/11/29 08:50:40;;;;;;;9.90;5.28;;;4.20;99.90;;;;;;5093159;28;20493;-78
2021/11/29 08:53:09;;;;;;;8.55;4.85;;;4.50;99.90;;;;;;5093010;28;20395;-77
2021/11/29 08:55:36;;;;;;;9.38;4.22;;;4.50;99.90;;;;;;5093099;28;20024;-77
2021/11/29 08:58:05;;;;;;;6.90;3.92;;;4.70;99.90;;;;;;5074939;28;20020;-78
2021/11/29 09:00:31;;;;;;;9.18;4.68;;;4.60;99.90;;;;;;5074904;28;20020;-78
2021/11/29 09:02:58;;;;;;;10.50;4.45;;;4.80;99.90;;;;;;5093070;28;20428;-77
2021/11/29 09:05:24;;;;;;;11.35;4.60;;;4.80;99.90;;;;;;5093025;28;20103;-77
2021/11/29 09:07:50;;;;;;;6.55;4.22;;;4.90;99.90;;;;;;5092999;28;20121;-77
2021/11/29 09:10:17;;;;;;;8.73;4.05;;;5.20;99.90;;;;;;5094978;28;20036;-77
2021/11/29 09:12:42;;;;;;;7.25;3.97;;;5.00;99.90;;;;;;5078746;28;20035;-78
2021/11/29 09:15:13;;;;;;;8.73;3.90;;;5.20;99.90;;;;;;5078682;28;20020;-77
2021/11/29 09:17:39;;;;;;;8.68;3.42;;;5.40;99.90;;;;;;5078704;28;20076;-78
2021/11/29 09:20:07;;;;;;;9.13;4.03;;;5.40;99.90;;;;;;5096809;28;20099;-77
2021/11/29 09:22:33;;;;;;;8.32;3.58;;;5.60;99.90;;;;;;5078541;28;20031;-78
2021/11/29 09:25:00;;;;;;;6.22;3.72;;;5.60;99.90;;;;;;5097010;28;20023;-78
2021/11/29 09:27:27;;;;;;;6.57;3.50;;;5.80;99.90;;;;;;5078425;28;20475;-78
2021/11/29 09:29:53;;;;;;;10.55;4.05;;;5.90;99.90;;;;;;5096612;28;20032;-78
2021/11/29 09:32:19;;;;;;;7.20;3.70;;;6.10;99.90;;;;;;5096543;28;20024;-78
2021/11/29 09:34:47;;;;;;;9.50;3.75;;;6.10;99.90;;;;;;5096546;28;20368;-78
2021/11/29 09:37:13;;;;;;;7.32;3.60;;;6.10;99.90;;;;;;5096395;28;20063;-78
2021/11/29 09:39:39;;;;;;;10.38;3.70;;;6.30;99.90;;;;;;5078192;28;20028;-79
2021/11/29 09:42:05;;;;;;;7.43;3.70;;;6.10;99.90;;;;;;5078138;28;20031;-79
2021/11/29 09:44:31;;;;;;;6.93;3.42;;;6.40;99.90;;;;;;5078195;28;20024;-79
2021/11/29 09:46:57;;;;;;;6.32;3.53;;;6.50;99.90;;;;;;5078101;28;20345;-79
2021/11/29 09:49:23;;;;;;;24.95;4.93;;;6.80;99.90;;;;;;5078063;28;20491;-79
2021/11/29 09:51:49;;;;;;;10.38;3.90;;;6.90;99.90;;;;;;5096167;28;20502;-79
2021/11/29 09:54:16;;;;;;;8.80;3.30;;;7.00;99.90;;;;;;5077994;28;20016;-79
2021/11/29 09:56:42;;;;;;;10.68;3.72;;;7.20;99.90;;;;;;5096424;28;20077;-79
2021/11/29 09:59:08;;;;;;;12.82;3.50;;;7.10;99.90;;;;;;5077933;28;20024;-79
2021/11/29 10:01:34;;;;;;;5.47;3.17;;;6.50;99.90;;;;;;5096035;28;20036;-79
2021/11/29 10:04:01;;;;;;;11.13;3.08;;;6.00;99.90;;;;;;5096006;28;20032;-80
2021/11/29 10:06:27;;;;;;;6.20;3.00;;;6.30;99.90;;;;;;5077800;28;20020;-80
2021/11/29 10:08:53;;;;;;;8.50;2.70;;;6.20;99.90;;;;;;5095864;28;20051;-79
2021/11/29 10:11:20;;;;;;;11.18;3.38;;;6.00;99.90;;;;;;5077633;28;20024;-80
2021/11/29 10:13:46;;;;;;;7.88;2.88;;;5.50;99.90;;;;;;5077474;28;20140;-79
2021/11/29 10:16:12;;;;;;;6.18;3.45;;;5.40;99.90;;;;;;5095626;28;20016;-79
2021/11/29 10:18:38;;;;;;;6.80;3.08;;;5.70;99.90;;;;;;5077540;28;20024;-79
2021/11/29 10:21:10;;;;;;;7.38;2.83;;;5.60;99.90;;;;;;5095462;28;20541;-79
2021/11/29 10:23:40;;;;;;;9.00;2.83;;;5.40;99.90;;;;;;5077396;28;20022;-79
2021/11/29 10:26:11;;;;;;;9.40;2.90;;;5.00;99.90;;;;;;5095772;28;20461;-79
2021/11/29 10:28:42;;;;;;;6.63;2.63;;;4.90;99.90;;;;;;5095829;28;20021;-79
2021/11/29 10:31:11;;;;;;;7.57;2.90;;;4.90;99.90;;;;;;5095544;28;20086;-85
2021/11/29 10:33:56;;;;;;;6.13;3.35;;;4.80;99.90;;;;;;5077356;28;20055;-79
2021/11/29 10:36:25;;;;;;;9.43;3.90;;;4.40;99.90;;;;;;5077224;28;20028;-79
2021/11/29 10:38:55;;;;;;;8.10;3.80;;;4.40;99.90;;;;;;5095114;28;20496;-79
2021/11/29 10:41:24;;;;;;;9.18;3.47;;;4.90;99.90;;;;;;5077170;28;20114;-80
2021/11/29 10:43:50;;;;;;;6.68;3.03;;;4.80;99.90;;;;;;5077045;28;20024;-80
2021/11/29 10:46:28;;;;;;;7.40;3.22;;;4.50;99.90;;;;;;5076978;28;20024;-80
2021/11/29 10:48:57;;;;;;;10.10;3.00;;;4.40;99.90;;;;;;5095131;28;20024;-80
2021/11/29 10:51:25;;;;;;;10.77;3.83;;;4.40;99.90;;;;;;5076775;28;20118;-79
2021/11/29 10:53:57;;;;;;;9.02;3.45;;;4.30;99.90;;;;;;5095243;28;20065;-80
2021/11/29 10:56:25;;;;;;;7.70;3.50;;;4.00;99.90;;;;;;5076826;28;20487;-79
2021/11/29 10:58:53;;;;;;;10.23;3.47;;;4.00;99.90;;;;;;5094879;28;20027;-79
2021/11/29 11:01:43;;;;;;;7.25;2.88;;;3.90;99.90;;;;;;5076653;28;20368;-80
2021/11/29 11:04:20;;;;;;;10.77;3.00;;;4.30;99.90;;;;;;5076739;28;20019;-80
2021/11/29 11:06:49;;;;;;;9.27;3.70;;;4.30;99.90;;;;;;5076524;28;20028;-79
2021/11/29 11:09:51;;;;;;;12.30;3.10;;;4.30;99.90;;;;;;5095292;28;20028;-79
2021/11/29 11:12:17;;;;;;;5.88;2.97;;;4.70;99.90;;;;;;5063079;28;20051;-79
2021/11/29 11:15:04;;;;;;;4.47;2.88;;;5.20;99.90;;;;;;5076430;28;20024;-80
2021/11/29 11:17:32;;;;;;;5.65;2.88;;;5.40;99.90;;;;;;5076473;28;20023;-79
2021/11/29 11:20:19;;;;;;;10.23;3.45;;;5.90;99.90;;;;;;5076325;28;20116;-79
2021/11/29 11:22:49;;;;;;;10.18;3.17;;;6.40;99.90;;;;;;5093670;28;20036;-79
2021/11/29 11:25:30;;;;;;;8.57;2.67;;;6.20;99.90;;;;;;5094394;28;20023;-80
2021/11/29 11:28:05;;;;;;;7.50;2.90;;;6.20;99.90;;;;;;5076190;28;20090;-79
2021/11/29 11:30:40;;;;;;;5.85;2.47;;;5.90;99.90;;;;;;5094344;28;20027;-79
2021/11/29 11:33:11;;;;;;;6.13;3.00;;;5.80;99.90;;;;;;5093698;28;20020;-79
2021/11/29 11:35:40;;;;;;;5.13;2.58;;;5.40;99.90;;;;;;5076079;28;20051;-79
2021/11/29 11:38:16;;;;;;;8.48;2.72;;;4.80;99.90;;;;;;5093941;28;20040;-79
2021/11/29 11:40:46;;;;;;;9.52;4.10;;;4.40;99.90;;;;;;5075953;28;20028;-78
2021/11/29 11:43:14;;;;;;;6.28;3.08;;;3.90;99.90;;;;;;5094119;28;20062;-79
2021/11/29 11:45:44;;;;;;;7.38;3.60;;;3.80;99.90;;;;;;5076204;28;20544;-79
2021/11/29 11:48:13;;;;;;;6.95;3.33;;;3.80;99.90;;;;;;5075764;28;20016;-79
2021/11/29 11:50:47;;;;;;;7.18;2.80;;;4.00;99.90;;;;;;5075753;28;20020;-79
2021/11/29 11:53:13;;;;;;;12.05;5.10;;;5.30;99.90;;;;;;5076768;28;20027;-80
2021/11/29 11:55:42;;;;;;;12.32;3.85;;;6.80;99.90;;;;;;5075628;28;20484;-82
2021/11/29 11:58:16;;;;;;;20.27;6.47;;;7.60;99.90;;;;;;5075614;28;20020;-83
2021/11/29 12:00:48;;;;;;;;;;;6.80;99.90;;;;;;5094172;28;20479;-83
2021/11/29 12:03:29;;;;;;;7.93;3.45;;;5.90;99.90;;;;;;5075509;28;19957;-83
2021/11/29 12:06:07;;;;;;;6.82;2.75;;;6.90;99.90;;;;;;5094037;28;20074;-82
2021/11/29 12:08:41;;;;;;;6.00;2.95;;;6.70;99.90;;;;;;5075542;28;20024;-83
2021/11/29 12:11:29;;;;;;;11.63;2.80;;;6.10;99.90;;;;;;5075454;28;20028;-83
2021/11/29 12:14:13;;;;;;;6.22;3.00;;;5.20;99.90;;;;;;5077294;28;20116;-83
2021/11/29 12:16:41;;;;;;;;;;;4.70;99.90;;;;;;5075721;28;20483;-84
2021/11/29 12:19:28;;;;;;;12.32;3.75;;;4.30;99.90;;;;;;5075342;28;19987;-83
2021/11/29 12:22:01;;;;;;;8.98;3.00;;;4.20;99.90;;;;;;5075297;28;20028;-81
2021/11/29 12:24:40;;;;;;;9.05;3.40;;;3.90;99.90;;;;;;5076117;28;20463;-83
2021/11/29 12:27:09;;;;;;;7.00;3.28;;;3.80;99.90;;;;;;5075262;28;20445;-83
2021/11/29 12:29:42;;;;;;;8.45;4.10;;;3.70;99.90;;;;;;5075189;28;20030;-82
2021/11/29 12:32:10;;;;;;;8.43;3.90;;;3.70;99.90;;;;;;5093280;28;20438;-82
2021/11/29 12:34:51;;;;;;;9.90;4.57;;;3.70;99.90;;;;;;5075163;28;20391;-83
2021/11/29 12:37:30;;;;;;;6.78;4.00;;;3.80;99.90;;;;;;5074972;28;20056;-83
2021/11/29 12:40:01;;;;;;;7.28;4.00;;;3.80;99.90;;;;;;5075142;28;20364;-84
2021/11/29 12:42:26;;;;;;;7.97;4.32;;;3.80;99.90;;;;;;5075110;28;20506;-83
2021/11/29 12:44:59;;;;;;;18.05;4.65;;;3.60;99.90;;;;;;5080394;28;20020;-84
2021/11/29 12:48:00;;;;;;;13.60;4.60;;;3.60;99.90;;;;;;5081648;28;20059;-85
2021/11/29 12:50:47;;;;;;;13.38;4.82;;;3.60;99.90;;;;;;5081724;28;20024;-83